createdAt,value
2022-08-07T00:00:05.505Z,25.50
2022-08-07T00:00:35.927Z,25.51
2022-08-07T00:01:12.765Z,25.50
2022-08-07T00:02:36.032Z,25.50
2022-08-07T00:02:36.032Z,25.47
2022-08-07T00:02:56.187Z,25.47
2022-08-07T00:03:26.716Z,25.50
2022-08-07T00:04:03.413Z,25.50
2022-08-07T00:04:33.953Z,25.51
2022-08-07T00:05:05.697Z,25.51
2022-08-07T00:05:37.125Z,25.51
2022-08-07T00:06:07.609Z,25.50
2022-08-07T00:06:45.597Z,25.47
2022-08-07T00:07:13.732Z,25.47
2022-08-07T00:07:46.328Z,25.50
2022-08-07T00:08:16.747Z,25.46
2022-08-07T00:08:47.185Z,25.46
2022-08-07T00:09:21.365Z,25.47
2022-08-07T00:10:04.845Z,25.45
2022-08-07T00:10:31.052Z,25.47
2022-08-07T00:11:01.810Z,25.47
2022-08-07T00:11:47.947Z,25.45
2022-08-07T00:12:14.240Z,25.46
2022-08-07T00:13:00.684Z,25.46
2022-08-07T00:13:25.594Z,25.47
2022-08-07T00:13:57.051Z,25.46
2022-08-07T00:14:29.831Z,25.46
2022-08-07T00:15:01.052Z,25.45
2022-08-07T00:15:37.698Z,25.46
2022-08-07T00:16:06.944Z,25.45
2022-08-07T00:16:37.896Z,25.45
2022-08-07T00:17:11.985Z,25.45
2022-08-07T00:17:42.405Z,25.46
2022-08-07T00:18:19.329Z,25.46
2022-08-07T00:18:48.146Z,25.43
2022-08-07T00:19:21.657Z,25.46
2022-08-07T00:20:01.139Z,25.43
2022-08-07T00:20:29.975Z,25.45
2022-08-07T00:21:07.887Z,25.46
2022-08-07T00:21:56.167Z,25.45
2022-08-07T00:22:24.738Z,25.45
2022-08-07T00:22:51.785Z,25.45
2022-08-07T00:23:22.261Z,25.45
2022-08-07T00:23:53.069Z,25.43
2022-08-07T00:24:23.498Z,25.43
2022-08-07T00:24:53.921Z,25.43
2022-08-07T00:25:24.343Z,25.43
2022-08-07T00:26:00.140Z,25.42
2022-08-07T00:26:59.037Z,25.42
2022-08-07T00:27:09.231Z,25.42
2022-08-07T00:27:53.560Z,25.42
2022-08-07T00:28:15.488Z,25.42
2022-08-07T00:28:56.599Z,25.42
2022-08-07T00:29:23.241Z,25.42
2022-08-07T00:29:53.806Z,25.42
2022-08-07T00:30:27.436Z,25.42
2022-08-07T00:30:58.682Z,25.42
2022-08-07T00:31:37.316Z,25.42
2022-08-07T00:32:04.428Z,25.43
2022-08-07T00:32:36.358Z,25.42
2022-08-07T00:33:07.611Z,25.43
2022-08-07T00:33:38.180Z,25.42
2022-08-07T00:34:10.869Z,25.45
2022-08-07T00:34:42.067Z,25.43
2022-08-07T00:35:12.487Z,25.42
2022-08-07T00:35:49.651Z,25.43
2022-08-07T00:36:20.211Z,25.43
2022-08-07T00:36:50.645Z,25.42
2022-08-07T00:37:21.063Z,25.42
2022-08-07T00:37:53.054Z,25.40
2022-08-07T00:38:31.682Z,25.42
2022-08-07T00:38:58.863Z,25.42
2022-08-07T00:39:29.454Z,25.40
2022-08-07T00:40:00.127Z,25.40
2022-08-07T00:40:39.982Z,25.40
2022-08-07T00:41:05.907Z,25.40
2022-08-07T00:41:53.216Z,25.40
2022-08-07T00:42:16.558Z,25.42
2022-08-07T00:42:46.978Z,25.39
2022-08-07T00:44:01.112Z,25.39
2022-08-07T00:44:01.847Z,25.39
2022-08-07T00:44:31.291Z,25.39
2022-08-07T00:45:07.070Z,25.39
2022-08-07T00:45:37.517Z,25.39
2022-08-07T00:46:08.039Z,25.40
2022-08-07T00:46:38.385Z,25.38
2022-08-07T00:47:16.013Z,25.39
2022-08-07T00:48:09.492Z,25.38
2022-08-07T00:48:30.854Z,25.39
2022-08-07T00:48:56.221Z,25.40
2022-08-07T00:50:20.638Z,25.38
2022-08-07T00:50:21.527Z,25.38
2022-08-07T00:50:50.581Z,25.38
2022-08-07T00:51:12.602Z,25.38
2022-08-07T00:51:58.615Z,25.39
2022-08-07T00:52:19.874Z,25.39
2022-08-07T00:52:50.599Z,25.39
2022-08-07T00:53:23.430Z,25.40
2022-08-07T00:53:55.284Z,25.38
2022-08-07T00:54:26.364Z,25.38
2022-08-07T00:54:56.779Z,25.39
2022-08-07T00:56:00.485Z,25.39
2022-08-07T00:56:04.006Z,25.38
2022-08-07T00:56:37.841Z,25.36
2022-08-07T00:57:08.722Z,25.38
2022-08-07T00:57:55.259Z,25.38
2022-08-07T00:58:14.897Z,25.38
2022-08-07T00:58:47.038Z,25.39
2022-08-07T00:59:35.839Z,25.36
2022-08-07T00:59:55.294Z,25.38
2022-08-07T01:00:25.714Z,25.36
2022-08-07T01:00:56.134Z,25.38
2022-08-07T01:01:26.659Z,25.38
2022-08-07T01:01:57.984Z,25.36
2022-08-07T01:02:29.660Z,25.35
2022-08-07T01:03:00.189Z,25.36
2022-08-07T01:03:56.942Z,25.36
2022-08-07T01:04:07.429Z,25.36
2022-08-07T01:04:43.290Z,25.36
2022-08-07T01:05:19.021Z,25.36
2022-08-07T01:05:53.588Z,25.35
2022-08-07T01:06:24.147Z,25.38
2022-08-07T01:06:54.568Z,25.38
2022-08-07T01:07:25.001Z,25.36
2022-08-07T01:07:58.080Z,25.38
2022-08-07T01:08:28.496Z,25.38
2022-08-07T01:09:00.756Z,25.38
2022-08-07T01:10:05.156Z,25.36
2022-08-07T01:10:11.309Z,25.36
2022-08-07T01:10:47.700Z,25.35
2022-08-07T01:12:04.425Z,25.38
2022-08-07T01:12:26.539Z,25.36
2022-08-07T01:12:30.747Z,25.36
2022-08-07T01:13:01.480Z,25.36
2022-08-07T01:13:35.081Z,25.36
2022-08-07T01:14:05.589Z,25.35
2022-08-07T01:14:37.027Z,25.35
2022-08-07T01:15:07.619Z,25.35
2022-08-07T01:16:01.039Z,25.35
2022-08-07T01:16:30.608Z,25.33
2022-08-07T01:16:53.014Z,25.35
2022-08-07T01:17:23.457Z,25.35
2022-08-07T01:17:53.882Z,25.35
2022-08-07T01:18:24.770Z,25.35
2022-08-07T01:18:55.189Z,25.35
2022-08-07T01:19:25.615Z,25.35
2022-08-07T01:19:56.028Z,25.35
2022-08-07T01:20:30.831Z,25.35
2022-08-07T01:21:01.871Z,25.35
2022-08-07T01:21:32.292Z,25.36
2022-08-07T01:22:08.896Z,25.36
2022-08-07T01:22:56.561Z,25.35
2022-08-07T01:23:17.874Z,25.33
2022-08-07T01:23:53.194Z,25.33
2022-08-07T01:24:23.621Z,25.33
2022-08-07T01:24:54.037Z,25.33
2022-08-07T01:25:53.575Z,25.35
2022-08-07T01:26:01.550Z,25.35
2022-08-07T01:26:31.969Z,25.33
2022-08-07T01:27:02.391Z,25.33
2022-08-07T01:27:32.858Z,25.33
2022-08-07T01:28:03.238Z,25.33
2022-08-07T01:28:33.948Z,25.33
2022-08-07T01:29:04.417Z,25.32
2022-08-07T01:29:34.839Z,25.33
2022-08-07T01:30:05.261Z,25.33
2022-08-07T01:30:35.679Z,25.32
2022-08-07T01:31:09.381Z,25.32
2022-08-07T01:31:48.136Z,25.32
2022-08-07T01:32:19.061Z,25.32
2022-08-07T01:32:52.741Z,25.30
2022-08-07T01:33:23.143Z,25.32
2022-08-07T01:33:57.504Z,25.28
2022-08-07T01:34:31.151Z,25.30
2022-08-07T01:35:01.672Z,25.30
2022-08-07T01:35:53.629Z,25.30
2022-08-07T01:36:09.070Z,25.28
2022-08-07T01:36:40.393Z,25.32
2022-08-07T01:37:11.148Z,25.30
2022-08-07T01:37:43.424Z,25.30
2022-08-07T01:38:16.096Z,25.30
2022-08-07T01:38:51.420Z,25.30
2022-08-07T01:39:21.874Z,25.30
2022-08-07T01:39:52.958Z,25.32
2022-08-07T01:40:23.849Z,25.28
2022-08-07T01:40:54.319Z,25.32
2022-08-07T01:41:26.155Z,25.30
2022-08-07T01:42:38.705Z,25.28
2022-08-07T01:42:38.841Z,25.32
2022-08-07T01:43:07.929Z,25.30
2022-08-07T01:43:38.663Z,25.30
2022-08-07T01:44:09.031Z,25.30
2022-08-07T01:44:39.452Z,25.28
2022-08-07T01:45:17.747Z,25.30
2022-08-07T01:45:46.555Z,25.27
2022-08-07T01:46:17.090Z,25.28
2022-08-07T01:46:51.774Z,25.30
2022-08-07T01:48:18.426Z,25.28
2022-08-07T01:48:18.622Z,25.28
2022-08-07T01:48:33.415Z,25.28
2022-08-07T01:49:03.994Z,25.28
2022-08-07T01:49:34.415Z,25.28
2022-08-07T01:50:04.837Z,25.28
2022-08-07T01:50:35.254Z,25.28
2022-08-07T01:51:24.044Z,25.27
2022-08-07T01:52:03.175Z,25.27
2022-08-07T01:52:16.330Z,25.25
2022-08-07T01:52:49.666Z,25.27
2022-08-07T01:54:09.370Z,25.25
2022-08-07T01:54:09.999Z,25.27
2022-08-07T01:54:36.864Z,25.27
2022-08-07T01:55:07.701Z,25.25
2022-08-07T01:55:43.023Z,25.25
2022-08-07T01:56:13.443Z,25.27
2022-08-07T01:56:43.861Z,25.27
2022-08-07T01:57:24.475Z,25.27
2022-08-07T01:58:05.479Z,25.27
2022-08-07T01:58:33.051Z,25.27
2022-08-07T01:59:03.787Z,25.25
2022-08-07T01:59:34.541Z,25.27
2022-08-07T02:00:13.382Z,25.25
2022-08-07T02:00:45.409Z,25.27
2022-08-07T02:01:25.518Z,25.25
2022-08-07T02:02:02.211Z,25.25
2022-08-07T02:02:32.678Z,25.24
2022-08-07T02:03:18.324Z,25.27
2022-08-07T02:03:42.872Z,25.24
2022-08-07T02:04:12.271Z,25.24
2022-08-07T02:04:52.622Z,25.25
2022-08-07T02:05:48.107Z,25.25
2022-08-07T02:05:59.755Z,25.25
2022-08-07T02:06:31.325Z,25.25
2022-08-07T02:07:02.716Z,25.25
2022-08-07T02:07:44.667Z,25.25
2022-08-07T02:08:09.442Z,25.25
2022-08-07T02:08:44.215Z,25.25
2022-08-07T02:09:33.484Z,25.25
2022-08-07T02:09:53.243Z,25.23
2022-08-07T02:10:25.281Z,25.23
2022-08-07T02:10:58.156Z,25.24
2022-08-07T02:11:30.944Z,25.23
2022-08-07T02:12:05.275Z,25.24
2022-08-07T02:12:36.448Z,25.24
2022-08-07T02:13:07.787Z,25.23
2022-08-07T02:13:56.892Z,25.24
2022-08-07T02:14:35.473Z,25.23
2022-08-07T02:14:48.887Z,25.24
2022-08-07T02:15:19.719Z,25.24
2022-08-07T02:15:53.132Z,25.23
2022-08-07T02:16:32.948Z,25.24
2022-08-07T02:16:58.943Z,25.23
2022-08-07T02:17:31.696Z,25.23
2022-08-07T02:18:04.620Z,25.24
2022-08-07T02:18:36.985Z,25.24
2022-08-07T02:20:03.601Z,25.23
2022-08-07T02:20:07.267Z,25.21
2022-08-07T02:20:23.926Z,25.23
2022-08-07T02:20:55.838Z,25.23
2022-08-07T02:21:27.862Z,25.21
2022-08-07T02:22:03.186Z,25.21
2022-08-07T02:22:38.442Z,25.21
2022-08-07T02:23:12.580Z,25.21
2022-08-07T02:23:47.201Z,25.21
2022-08-07T02:24:19.735Z,25.21
2022-08-07T02:24:50.151Z,25.23
2022-08-07T02:25:20.569Z,25.21
2022-08-07T02:26:30.397Z,25.21
2022-08-07T02:26:34.447Z,25.21
2022-08-07T02:27:05.154Z,25.21
2022-08-07T02:27:36.603Z,25.23
2022-08-07T02:28:11.577Z,25.23
2022-08-07T02:28:42.003Z,25.23
2022-08-07T02:29:13.766Z,25.21
2022-08-07T02:29:53.997Z,25.20
2022-08-07T02:30:19.592Z,25.20
2022-08-07T02:30:50.013Z,25.20
2022-08-07T02:31:29.235Z,25.21
2022-08-07T02:31:55.774Z,25.18
2022-08-07T02:32:30.337Z,25.20
2022-08-07T02:33:09.409Z,25.20
2022-08-07T02:33:57.115Z,25.20
2022-08-07T02:34:17.369Z,25.20
2022-08-07T02:34:48.893Z,25.18
2022-08-07T02:36:28.988Z,25.20
2022-08-07T02:36:29.914Z,25.18
2022-08-07T02:36:33.186Z,25.20
2022-08-07T02:37:08.112Z,25.18
2022-08-07T02:37:38.725Z,25.18
2022-08-07T02:38:14.045Z,25.18
2022-08-07T02:38:50.933Z,25.17
2022-08-07T02:39:43.817Z,25.17
2022-08-07T02:40:12.001Z,25.17
2022-08-07T02:40:35.455Z,25.18
2022-08-07T02:41:07.925Z,25.17
2022-08-07T02:41:41.063Z,25.18
2022-08-07T02:42:16.531Z,25.18
2022-08-07T02:42:46.913Z,25.18
2022-08-07T02:43:18.323Z,25.17
2022-08-07T02:43:48.897Z,25.18
2022-08-07T02:44:19.498Z,25.18
2022-08-07T02:44:49.917Z,25.18
2022-08-07T02:45:58.209Z,25.18
2022-08-07T02:46:02.045Z,25.18
2022-08-07T02:46:32.834Z,25.18
2022-08-07T02:47:03.252Z,25.18
2022-08-07T02:47:45.121Z,25.18
2022-08-07T02:48:09.980Z,25.18
2022-08-07T02:48:40.779Z,25.18
2022-08-07T02:49:29.158Z,25.17
2022-08-07T02:49:58.428Z,25.17
2022-08-07T02:50:26.751Z,25.18
2022-08-07T02:51:01.278Z,25.18
2022-08-07T02:51:49.557Z,25.15
2022-08-07T02:52:07.024Z,25.15
2022-08-07T02:52:40.041Z,25.15
2022-08-07T02:53:10.719Z,25.14
2022-08-07T02:53:41.409Z,25.15
2022-08-07T02:54:13.231Z,25.15
2022-08-07T02:54:44.641Z,25.14
2022-08-07T02:55:28.384Z,25.15
2022-08-07T02:56:02.384Z,25.14
2022-08-07T02:56:29.254Z,25.15
2022-08-07T02:57:01.744Z,25.15
2022-08-07T02:57:34.902Z,25.15
2022-08-07T02:58:05.663Z,25.14
2022-08-07T02:58:36.092Z,25.17
2022-08-07T02:59:10.055Z,25.15
2022-08-07T02:59:42.116Z,25.15
2022-08-07T03:00:13.238Z,25.15
2022-08-07T03:00:47.551Z,25.15
2022-08-07T03:01:19.159Z,25.14
2022-08-07T03:01:55.426Z,25.15
2022-08-07T03:02:25.985Z,25.15
2022-08-07T03:02:56.774Z,25.15
2022-08-07T03:03:42.167Z,25.14
2022-08-07T03:04:03.498Z,25.14
2022-08-07T03:04:37.838Z,25.13
2022-08-07T03:05:09.689Z,25.15
2022-08-07T03:05:40.110Z,25.13
2022-08-07T03:06:16.502Z,25.14
2022-08-07T03:06:48.281Z,25.13
2022-08-07T03:07:18.847Z,25.14
2022-08-07T03:08:07.515Z,25.14
2022-08-07T03:08:29.684Z,25.13
2022-08-07T03:09:00.051Z,25.13
2022-08-07T03:09:44.737Z,25.13
2022-08-07T03:10:05.783Z,25.13
2022-08-07T03:10:40.731Z,25.13
2022-08-07T03:11:14.167Z,25.13
2022-08-07T03:11:52.296Z,25.13
2022-08-07T03:12:22.193Z,25.13
2022-08-07T03:12:53.107Z,25.10
2022-08-07T03:13:23.542Z,25.13
2022-08-07T03:13:57.615Z,25.13
2022-08-07T03:14:29.278Z,25.13
2022-08-07T03:15:02.446Z,25.13
2022-08-07T03:15:56.775Z,25.13
2022-08-07T03:16:10.341Z,25.10
2022-08-07T03:16:42.802Z,25.10
2022-08-07T03:17:13.222Z,25.13
2022-08-07T03:17:53.437Z,25.10
2022-08-07T03:18:20.204Z,25.13
2022-08-07T03:18:54.761Z,25.13
2022-08-07T03:19:28.939Z,25.13
2022-08-07T03:19:59.590Z,25.13
2022-08-07T03:20:30.010Z,25.13
2022-08-07T03:21:00.434Z,25.10
2022-08-07T03:21:33.041Z,25.13
2022-08-07T03:22:03.766Z,25.10
2022-08-07T03:22:34.868Z,25.13
2022-08-07T03:23:05.304Z,25.13
2022-08-07T03:24:19.601Z,25.10
2022-08-07T03:24:19.662Z,25.10
2022-08-07T03:24:51.271Z,25.09
2022-08-07T03:25:21.870Z,25.10
2022-08-07T03:25:58.502Z,25.09
2022-08-07T03:26:28.525Z,25.10
2022-08-07T03:26:59.652Z,25.09
2022-08-07T03:27:59.731Z,25.10
2022-08-07T03:28:36.740Z,25.10
2022-08-07T03:28:41.047Z,25.09
2022-08-07T03:29:14.792Z,25.09
2022-08-07T03:29:49.519Z,25.10
2022-08-07T03:30:20.619Z,25.09
2022-08-07T03:30:54.724Z,25.09
2022-08-07T03:31:26.211Z,25.10
2022-08-07T03:32:00.465Z,25.09
2022-08-07T03:32:30.895Z,25.10
2022-08-07T03:33:01.312Z,25.09
2022-08-07T03:33:40.057Z,25.09
2022-08-07T03:34:08.939Z,25.08
2022-08-07T03:34:47.171Z,25.10
2022-08-07T03:35:19.583Z,25.09
2022-08-07T03:35:54.904Z,25.09
2022-08-07T03:36:26.611Z,25.09
2022-08-07T03:36:57.402Z,25.08
2022-08-07T03:37:28.595Z,25.09
2022-08-07T03:38:04.801Z,25.09
2022-08-07T03:38:35.238Z,25.06
2022-08-07T03:39:05.889Z,25.09
2022-08-07T03:39:59.159Z,25.08
2022-08-07T03:40:15.659Z,25.08
2022-08-07T03:40:47.308Z,25.08
2022-08-07T03:41:42.126Z,25.06
2022-08-07T03:41:57.792Z,25.05
2022-08-07T03:42:31.115Z,25.06
2022-08-07T03:43:01.544Z,25.08
2022-08-07T03:43:33.183Z,25.08
2022-08-07T03:44:06.466Z,25.06
2022-08-07T03:44:39.911Z,25.06
2022-08-07T03:45:10.326Z,25.08
2022-08-07T03:45:43.366Z,25.08
2022-08-07T03:46:18.187Z,25.08
2022-08-07T03:47:11.129Z,25.08
2022-08-07T03:47:24.513Z,25.08
2022-08-07T03:47:54.923Z,25.06
2022-08-07T03:48:29.794Z,25.08
2022-08-07T03:49:03.067Z,25.06
2022-08-07T03:49:33.736Z,25.08
2022-08-07T03:50:04.155Z,25.09
2022-08-07T03:50:34.955Z,25.06
2022-08-07T03:51:05.315Z,25.05
2022-08-07T03:51:47.381Z,25.08
2022-08-07T03:52:22.307Z,25.06
2022-08-07T03:52:51.228Z,25.08
2022-08-07T03:54:01.703Z,25.05
2022-08-07T03:54:33.331Z,25.03
2022-08-07T03:54:35.525Z,25.06
2022-08-07T03:55:07.877Z,25.05
2022-08-07T03:55:53.290Z,25.05
2022-08-07T03:56:13.861Z,25.03
2022-08-07T03:57:03.457Z,25.06
2022-08-07T03:58:33.261Z,25.05
2022-08-07T03:58:34.342Z,25.05
2022-08-07T03:59:04.959Z,25.05
2022-08-07T03:59:09.977Z,25.05
2022-08-07T03:59:46.786Z,25.05
2022-08-07T04:00:16.168Z,25.03
2022-08-07T04:00:54.928Z,25.03
2022-08-07T04:01:22.562Z,25.02
2022-08-07T04:01:53.044Z,25.02
2022-08-07T04:02:23.480Z,25.03
2022-08-07T04:02:56.762Z,25.03
2022-08-07T04:03:27.290Z,25.05
2022-08-07T04:03:57.712Z,25.05
2022-08-07T04:04:28.133Z,25.05
2022-08-07T04:05:03.054Z,25.05
2022-08-07T04:05:40.618Z,25.03
2022-08-07T04:06:08.797Z,25.05
2022-08-07T04:06:44.119Z,25.05
2022-08-07T04:07:16.773Z,25.03
2022-08-07T04:07:48.401Z,25.03
2022-08-07T04:08:20.999Z,25.03
2022-08-07T04:08:51.657Z,25.03
2022-08-07T04:09:23.679Z,25.03
2022-08-07T04:09:54.713Z,25.03
2022-08-07T04:10:25.135Z,25.02
2022-08-07T04:12:20.702Z,25.03
2022-08-07T04:12:26.380Z,25.02
2022-08-07T04:12:27.984Z,25.03
2022-08-07T04:12:45.820Z,25.02
2022-08-07T04:13:17.645Z,25.00
2022-08-07T04:14:09.188Z,25.03
2022-08-07T04:14:38.401Z,25.02
2022-08-07T04:15:00.527Z,25.03
2022-08-07T04:15:30.911Z,25.02
2022-08-07T04:16:01.333Z,25.03
2022-08-07T04:16:33.012Z,25.03
2022-08-07T04:17:03.907Z,25.02
2022-08-07T04:18:32.019Z,25.02
2022-08-07T04:18:57.024Z,25.03
2022-08-07T04:18:59.807Z,25.02
2022-08-07T04:19:20.268Z,25.02
2022-08-07T04:19:55.587Z,25.02
2022-08-07T04:20:26.027Z,25.02
2022-08-07T04:20:56.426Z,25.02
2022-08-07T04:21:31.852Z,25.02
2022-08-07T04:22:08.595Z,25.02
2022-08-07T04:22:39.050Z,25.00
2022-08-07T04:23:19.418Z,24.99
2022-08-07T04:24:07.511Z,25.00
2022-08-07T04:24:34.273Z,24.99
2022-08-07T04:25:01.016Z,25.02
2022-08-07T04:25:39.115Z,25.02
2022-08-07T04:26:07.431Z,25.00
2022-08-07T04:26:37.960Z,25.02
2022-08-07T04:27:15.363Z,25.03
2022-08-07T04:28:00.640Z,25.02
2022-08-07T04:28:24.092Z,25.00
2022-08-07T04:28:55.638Z,25.00
2022-08-07T04:29:26.057Z,25.00
2022-08-07T04:30:04.535Z,25.02
2022-08-07T04:30:55.175Z,25.00
2022-08-07T04:31:19.626Z,25.00
2022-08-07T04:32:03.167Z,25.00
2022-08-07T04:32:34.025Z,25.00
2022-08-07T04:32:58.809Z,25.00
2022-08-07T04:33:29.293Z,25.00
2022-08-07T04:34:00.394Z,25.00
2022-08-07T04:34:33.000Z,25.00
2022-08-07T04:35:05.688Z,25.00
2022-08-07T04:35:36.569Z,24.99
2022-08-07T04:36:06.997Z,24.99
2022-08-07T04:36:37.419Z,25.00
2022-08-07T04:37:15.417Z,24.99
2022-08-07T04:38:03.687Z,25.00
2022-08-07T04:38:20.622Z,24.99
2022-08-07T04:38:51.039Z,25.00
2022-08-07T04:39:25.806Z,24.99
2022-08-07T04:39:56.479Z,24.99
2022-08-07T04:40:31.441Z,25.00
2022-08-07T04:41:02.758Z,25.00
2022-08-07T04:41:36.968Z,25.00
2022-08-07T04:42:07.449Z,24.99
2022-08-07T04:42:38.077Z,25.00
2022-08-07T04:43:09.154Z,24.99
2022-08-07T04:44:14.518Z,24.98
2022-08-07T04:44:18.884Z,24.99
2022-08-07T04:44:54.734Z,24.99
2022-08-07T04:45:57.894Z,24.99
2022-08-07T04:46:02.085Z,25.00
2022-08-07T04:46:34.674Z,24.99
2022-08-07T04:47:08.626Z,24.99
2022-08-07T04:47:57.123Z,24.99
2022-08-07T04:48:15.003Z,24.99
2022-08-07T04:48:47.139Z,24.99
2022-08-07T04:49:25.503Z,25.00
2022-08-07T04:50:04.222Z,25.00
2022-08-07T04:50:31.387Z,24.98
2022-08-07T04:51:03.551Z,25.00
2022-08-07T04:51:33.957Z,24.99
2022-08-07T04:52:06.739Z,24.99
2022-08-07T04:52:37.503Z,25.00
2022-08-07T04:53:16.494Z,25.00
2022-08-07T04:54:01.448Z,24.99
2022-08-07T04:54:29.945Z,24.99
2022-08-07T04:54:58.792Z,25.00
2022-08-07T04:58:09.807Z,24.99
2022-08-07T04:58:09.811Z,24.99
2022-08-07T04:58:10.149Z,25.00
2022-08-07T04:58:14.030Z,24.99
2022-08-07T04:58:15.998Z,24.99
2022-08-07T04:58:49.772Z,24.99
2022-08-07T04:59:17.785Z,24.99
2022-08-07T05:00:11.067Z,24.99
2022-08-07T05:00:17.287Z,25.00
2022-08-07T05:00:47.153Z,25.00
2022-08-07T05:01:18.273Z,25.02
2022-08-07T05:01:50.526Z,25.02
2022-08-07T05:02:21.644Z,24.99
2022-08-07T05:02:52.482Z,25.00
2022-08-07T05:03:38.728Z,24.99
2022-08-07T05:04:07.737Z,24.99
2022-08-07T05:04:33.544Z,25.00
2022-08-07T05:05:11.455Z,25.00
2022-08-07T05:05:53.964Z,24.99
2022-08-07T05:06:16.418Z,24.99
2022-08-07T05:06:51.341Z,25.00
2022-08-07T05:07:30.380Z,25.00
2022-08-07T05:07:58.953Z,25.00
2022-08-07T05:08:59.761Z,25.02
2022-08-07T05:09:06.299Z,24.99
2022-08-07T05:09:46.157Z,25.00
2022-08-07T05:10:13.624Z,24.99
2022-08-07T05:10:45.753Z,24.99
2022-08-07T05:11:19.138Z,25.00
2022-08-07T05:11:57.578Z,24.99
2022-08-07T05:12:27.033Z,25.00
2022-08-07T05:13:09.979Z,25.00
2022-08-07T05:14:53.904Z,25.00
2022-08-07T05:14:55.448Z,25.00
2022-08-07T05:14:55.988Z,24.99
2022-08-07T05:15:23.160Z,24.99
2022-08-07T05:15:54.386Z,24.99
2022-08-07T05:16:24.805Z,24.99
2022-08-07T05:16:55.488Z,25.00
2022-08-07T05:17:25.914Z,25.00
2022-08-07T05:18:01.596Z,24.98
2022-08-07T05:18:36.563Z,24.99
2022-08-07T05:19:07.152Z,24.99
2022-08-07T05:19:44.252Z,25.00
2022-08-07T05:20:13.259Z,24.99
2022-08-07T05:20:43.998Z,25.00
2022-08-07T05:21:14.837Z,25.02
2022-08-07T05:21:59.836Z,25.00
2022-08-07T05:22:27.632Z,25.00
2022-08-07T05:22:55.901Z,25.02
2022-08-07T05:23:30.153Z,25.02
2022-08-07T05:24:01.413Z,25.02
2022-08-07T05:24:39.606Z,25.02
2022-08-07T05:25:08.710Z,25.02
2022-08-07T05:26:13.805Z,25.00
2022-08-07T05:26:24.204Z,25.02
2022-08-07T05:26:53.122Z,25.02
2022-08-07T05:28:02.835Z,25.02
2022-08-07T05:28:03.013Z,24.99
2022-08-07T05:28:35.007Z,25.00
2022-08-07T05:29:05.427Z,25.02
2022-08-07T05:29:48.009Z,25.02
2022-08-07T05:30:11.811Z,25.00
2022-08-07T05:30:43.225Z,25.02
2022-08-07T05:31:17.426Z,25.00
2022-08-07T05:31:52.823Z,24.99
2022-08-07T05:32:23.166Z,25.00
2022-08-07T05:32:54.225Z,25.02
2022-08-07T05:33:24.775Z,25.02
2022-08-07T05:34:04.443Z,25.02
2022-08-07T05:34:31.717Z,25.00
2022-08-07T05:35:04.057Z,25.00
2022-08-07T05:35:41.702Z,25.03
2022-08-07T05:36:12.261Z,25.02
2022-08-07T05:36:48.890Z,25.03
2022-08-07T05:37:25.100Z,25.02
2022-08-07T05:38:09.066Z,25.02
2022-08-07T05:38:59.607Z,25.02
2022-08-07T05:39:16.012Z,25.02
2022-08-07T05:40:04.961Z,25.02
2022-08-07T05:40:18.743Z,25.03
2022-08-07T05:40:51.636Z,25.02
2022-08-07T05:41:22.258Z,25.02
2022-08-07T05:42:02.350Z,25.05
2022-08-07T05:42:34.304Z,25.05
2022-08-07T05:43:04.026Z,25.05
2022-08-07T05:44:06.743Z,25.02
2022-08-07T05:44:14.676Z,25.03
2022-08-07T05:44:46.504Z,25.03
2022-08-07T05:45:26.344Z,25.03
2022-08-07T05:45:56.467Z,25.02
2022-08-07T05:46:26.950Z,25.03
2022-08-07T05:47:00.321Z,25.05
2022-08-07T05:47:38.335Z,25.03
2022-08-07T05:48:06.972Z,25.03
2022-08-07T05:48:37.475Z,25.00
2022-08-07T05:49:14.378Z,25.02
2022-08-07T05:49:44.917Z,25.02
2022-08-07T05:50:15.336Z,25.02
2022-08-07T05:50:45.758Z,25.02
2022-08-07T05:51:16.880Z,25.00
2022-08-07T05:51:47.722Z,25.02
2022-08-07T05:52:20.126Z,25.02
2022-08-07T05:52:50.867Z,25.02
2022-08-07T05:54:11.924Z,25.02
2022-08-07T05:54:13.096Z,25.02
2022-08-07T05:54:53.401Z,25.03
2022-08-07T05:55:10.743Z,25.03
2022-08-07T05:56:02.207Z,25.03
2022-08-07T05:56:17.056Z,25.03
2022-08-07T05:56:48.147Z,25.05
2022-08-07T05:57:21.870Z,25.03
2022-08-07T05:57:52.301Z,25.03
2022-08-07T05:58:36.118Z,25.05
2022-08-07T05:58:58.040Z,25.03
2022-08-07T05:59:28.913Z,25.05
2022-08-07T06:00:04.234Z,25.05
2022-08-07T06:00:34.653Z,25.05
2022-08-07T06:01:05.982Z,25.05
2022-08-07T06:01:40.998Z,25.06
2022-08-07T06:02:12.033Z,25.06
2022-08-07T06:02:42.519Z,25.06
2022-08-07T06:03:12.949Z,25.08
2022-08-07T06:03:57.127Z,25.06
2022-08-07T06:04:20.205Z,25.06
2022-08-07T06:04:50.801Z,25.06
2022-08-07T06:05:25.810Z,25.06
2022-08-07T06:05:56.822Z,25.05
2022-08-07T06:06:29.714Z,25.05
2022-08-07T06:07:03.788Z,25.05
2022-08-07T06:08:29.404Z,25.06
2022-08-07T06:08:30.270Z,25.05
2022-08-07T06:08:45.626Z,25.06
2022-08-07T06:09:17.108Z,25.05
2022-08-07T06:10:04.349Z,25.06
2022-08-07T06:10:22.852Z,25.05
2022-08-07T06:10:54.931Z,25.05
2022-08-07T06:11:25.439Z,25.06
2022-08-07T06:11:56.130Z,25.06
2022-08-07T06:12:31.656Z,25.05
2022-08-07T06:13:02.236Z,25.03
2022-08-07T06:14:12.999Z,25.06
2022-08-07T06:14:13.784Z,25.06
2022-08-07T06:14:43.901Z,25.06
2022-08-07T06:15:19.938Z,25.05
2022-08-07T06:15:50.705Z,25.06
2022-08-07T06:16:21.123Z,25.06
2022-08-07T06:16:56.319Z,25.06
2022-08-07T06:17:30.412Z,25.05
2022-08-07T06:18:02.542Z,25.06
2022-08-07T06:18:32.959Z,25.05
2022-08-07T06:19:06.615Z,25.08
2022-08-07T06:19:49.926Z,25.06
2022-08-07T06:20:31.990Z,25.08
2022-08-07T06:20:50.481Z,25.06
2022-08-07T06:22:14.761Z,25.06
2022-08-07T06:22:16.519Z,25.09
2022-08-07T06:22:38.922Z,25.08
2022-08-07T06:23:46.145Z,25.08
2022-08-07T06:24:37.908Z,25.06
2022-08-07T06:24:50.730Z,25.09
2022-08-07T06:24:58.381Z,25.08
2022-08-07T06:25:34.839Z,25.08
2022-08-07T06:26:05.601Z,25.08
2022-08-07T06:26:37.480Z,25.08
2022-08-07T06:27:09.119Z,25.09
2022-08-07T06:27:59.891Z,25.09
2022-08-07T06:28:15.902Z,25.09
2022-08-07T06:28:52.717Z,25.10
2022-08-07T06:29:23.328Z,25.10
2022-08-07T06:29:55.028Z,25.10
2022-08-07T06:30:35.569Z,25.13
2022-08-07T06:31:01.055Z,25.10
2022-08-07T06:31:46.595Z,25.13
2022-08-07T06:32:09.473Z,25.13
2022-08-07T06:32:43.744Z,25.14
2022-08-07T06:33:16.939Z,25.14
2022-08-07T06:33:47.361Z,25.14
2022-08-07T06:34:21.679Z,25.14
2022-08-07T06:34:52.039Z,25.14
2022-08-07T06:35:22.639Z,25.15
2022-08-07T06:36:12.338Z,25.17
2022-08-07T06:36:35.289Z,25.15
2022-08-07T06:37:03.660Z,25.18
2022-08-07T06:37:43.670Z,25.18
2022-08-07T06:38:10.063Z,25.17
2022-08-07T06:38:59.415Z,25.21
2022-08-07T06:40:16.465Z,25.21
2022-08-07T06:40:16.901Z,25.21
2022-08-07T06:40:35.110Z,25.23
2022-08-07T06:41:06.909Z,25.21
2022-08-07T06:42:00.536Z,25.23
2022-08-07T06:42:15.276Z,25.23
2022-08-07T06:42:46.629Z,25.24
2022-08-07T06:43:21.449Z,25.25
2022-08-07T06:43:59.406Z,25.28
2022-08-07T06:44:34.096Z,25.28
2022-08-07T06:45:03.049Z,25.27
2022-08-07T06:45:33.469Z,25.28
2022-08-07T06:46:06.174Z,25.30
2022-08-07T06:46:41.496Z,25.30
2022-08-07T06:47:15.543Z,25.33
2022-08-07T06:47:57.470Z,25.35
2022-08-07T06:48:24.630Z,25.35
2022-08-07T06:48:55.245Z,25.35
2022-08-07T06:49:25.666Z,25.36
2022-08-07T06:49:59.054Z,25.36
2022-08-07T06:50:30.465Z,25.39
2022-08-07T06:51:08.042Z,25.38
2022-08-07T06:51:49.713Z,25.40
2022-08-07T06:52:11.642Z,25.42
2022-08-07T06:52:42.060Z,25.40
2022-08-07T06:53:49.282Z,25.43
2022-08-07T06:55:28.725Z,25.45
2022-08-07T06:55:31.841Z,25.45
2022-08-07T06:55:33.714Z,25.43
2022-08-07T06:55:53.607Z,25.46
2022-08-07T06:56:15.183Z,25.45
2022-08-07T06:56:49.842Z,25.46
2022-08-07T06:57:20.926Z,25.46
2022-08-07T06:57:57.258Z,25.47
2022-08-07T06:58:29.633Z,25.46
2022-08-07T07:00:11.610Z,25.47
2022-08-07T07:00:14.843Z,25.47
2022-08-07T07:00:18.190Z,25.50
2022-08-07T07:00:48.538Z,25.50
2022-08-07T07:01:23.635Z,25.51
2022-08-07T07:01:54.073Z,25.52
2022-08-07T07:02:54.039Z,25.51
2022-08-07T07:03:08.789Z,25.52
2022-08-07T07:03:48.686Z,25.52
2022-08-07T07:04:32.095Z,25.52
2022-08-07T07:04:55.138Z,25.52
2022-08-07T07:06:02.463Z,25.52
2022-08-07T07:06:05.784Z,25.52
2022-08-07T07:06:34.833Z,25.54